sensor_id;sensor_type;location;lat;lon;timestamp;temperature;humidity
9215;DHT22;4642;51.364;6.788;2022-12-24T00:00:31;11.10;99.90
9215;DHT22;4642;51.364;6.788;2022-12-24T00:02:56;11.10;99.90
9215;DHT22;4642;51.364;6.788;2022-12-24T00:05:22;11.00;99.90
9215;DHT22;4642;51.364;6.788;2022-12-24T00:07:47;11.10;99.90
9215;DHT22;4642;51.364;6.788;2022-12-24T00:10:13;11.10;99.90
9215;DHT22;4642;51.364;6.788;2022-12-24T00:12:38;11.10;99.90
9215;DHT22;4642;51.364;6.788;2022-12-24T00:15:05;11.10;99.90
9215;DHT22;4642;51.364;6.788;2022-12-24T00:17:31;11.20;99.90
9215;DHT22;4642;51.364;6.788;2022-12-24T00:19:56;11.10;99.90
9215;DHT22;4642;51.364;6.788;2022-12-24T00:22:22;11.10;99.90
9215;DHT22;4642;51.364;6.788;2022-12-24T00:24:48;11.10;99.90
9215;DHT22;4642;51.364;6.788;2022-12-24T00:27:13;11.10;99.90
9215;DHT22;4642;51.364;6.788;2022-12-24T00:29:39;11.10;99.90
9215;DHT22;4642;51.364;6.788;2022-12-24T00:32:04;11.00;99.90
9215;DHT22;4642;51.364;6.788;2022-12-24T00:34:37;11.10;99.90
9215;DHT22;4642;51.364;6.788;2022-12-24T00:37:03;11.00;99.90
9215;DHT22;4642;51.364;6.788;2022-12-24T00:39:28;11.00;99.90
9215;DHT22;4642;51.364;6.788;2022-12-24T00:41:54;10.90;99.90
9215;DHT22;4642;51.364;6.788;2022-12-24T00:44:19;10.90;99.90
9215;DHT22;4642;51.364;6.788;2022-12-24T00:46:45;10.90;99.90
9215;DHT22;4642;51.364;6.788;2022-12-24T00:49:11;10.80;99.90
9215;DHT22;4642;51.364;6.788;2022-12-24T00:51:37;10.80;99.90
9215;DHT22;4642;51.364;6.788;2022-12-24T00:54:03;10.70;99.90
9215;DHT22;4642;51.364;6.788;2022-12-24T00:56:29;10.70;99.90
9215;DHT22;4642;51.364;6.788;2022-12-24T00:58:54;10.70;99.90
9215;DHT22;4642;51.364;6.788;2022-12-24T01:01:21;10.60;99.90
9215;DHT22;4642;51.364;6.788;2022-12-24T01:03:47;10.60;99.90
9215;DHT22;4642;51.364;6.788;2022-12-24T01:06:18;10.60;99.90
9215;DHT22;4642;51.364;6.788;2022-12-24T01:08:44;10.50;99.90
9215;DHT22;4642;51.364;6.788;2022-12-24T01:11:11;10.50;99.90
9215;DHT22;4642;51.364;6.788;2022-12-24T01:13:37;10.40;99.90
9215;DHT22;4642;51.364;6.788;2022-12-24T01:16:10;10.40;99.90
9215;DHT22;4642;51.364;6.788;2022-12-24T01:18:37;10.30;99.90
9215;DHT22;4642;51.364;6.788;2022-12-24T01:21:03;10.30;99.90
9215;DHT22;4642;51.364;6.788;2022-12-24T01:23:30;10.20;99.90
9215;DHT22;4642;51.364;6.788;2022-12-24T01:25:59;10.20;99.90
9215;DHT22;4642;51.364;6.788;2022-12-24T01:28:25;10.20;99.90
9215;DHT22;4642;51.364;6.788;2022-12-24T01:30:51;10.20;99.90
9215;DHT22;4642;51.364;6.788;2022-12-24T01:33:17;10.10;99.90
9215;DHT22;4642;51.364;6.788;2022-12-24T01:35:42;10.20;99.90
9215;DHT22;4642;51.364;6.788;2022-12-24T01:38:08;10.20;99.90
9215;DHT22;4642;51.364;6.788;2022-12-24T01:40:37;10.30;99.90
9215;DHT22;4642;51.364;6.788;2022-12-24T01:43:23;10.20;99.90
9215;DHT22;4642;51.364;6.788;2022-12-24T01:46:01;10.30;99.90
9215;DHT22;4642;51.364;6.788;2022-12-24T01:51:06;10.20;99.90
9215;DHT22;4642;51.364;6.788;2022-12-24T01:53:34;10.20;99.90
9215;DHT22;4642;51.364;6.788;2022-12-24T01:56:01;10.30;99.90
9215;DHT22;4642;51.364;6.788;2022-12-24T01:58:27;10.30;99.90
9215;DHT22;4642;51.364;6.788;2022-12-24T02:00:52;10.30;99.90
9215;DHT22;4642;51.364;6.788;2022-12-24T02:03:18;10.20;99.90
9215;DHT22;4642;51.364;6.788;2022-12-24T02:05:52;10.20;99.90
9215;DHT22;4642;51.364;6.788;2022-12-24T02:08:19;10.20;99.90
9215;DHT22;4642;51.364;6.788;2022-12-24T02:10:46;10.20;99.90
9215;DHT22;4642;51.364;6.788;2022-12-24T02:13:13;10.10;99.90
9215;DHT22;4642;51.364;6.788;2022-12-24T02:24:36;10.00;99.90
9215;DHT22;4642;51.364;6.788;2022-12-24T02:27:29;10.00;99.90
9215;DHT22;4642;51.364;6.788;2022-12-24T02:35:12;9.90;99.90
9215;DHT22;4642;51.364;6.788;2022-12-24T02:37:43;9.90;99.90
9215;DHT22;4642;51.364;6.788;2022-12-24T02:40:14;9.80;99.90
9215;DHT22;4642;51.364;6.788;2022-12-24T02:42:42;9.70;99.90
9215;DHT22;4642;51.364;6.788;2022-12-24T02:45:12;9.70;99.90
9215;DHT22;4642;51.364;6.788;2022-12-24T02:47:40;9.60;99.90
9215;DHT22;4642;51.364;6.788;2022-12-24T02:50:08;9.60;99.90
9215;DHT22;4642;51.364;6.788;2022-12-24T02:52:38;9.60;99.90
9215;DHT22;4642;51.364;6.788;2022-12-24T03:03:59;9.40;99.90
9215;DHT22;4642;51.364;6.788;2022-12-24T03:09:22;9.40;99.90
9215;DHT22;4642;51.364;6.788;2022-12-24T03:12:05;9.40;99.90
9215;DHT22;4642;51.364;6.788;2022-12-24T03:14:32;9.40;99.90
9215;DHT22;4642;51.364;6.788;2022-12-24T03:16:59;9.40;99.90
9215;DHT22;4642;51.364;6.788;2022-12-24T03:19:27;9.40;99.90
9215;DHT22;4642;51.364;6.788;2022-12-24T03:21:55;9.40;99.90
9215;DHT22;4642;51.364;6.788;2022-12-24T03:24:22;9.40;99.90
9215;DHT22;4642;51.364;6.788;2022-12-24T03:26:48;9.40;99.90
9215;DHT22;4642;51.364;6.788;2022-12-24T03:29:16;9.40;99.90
9215;DHT22;4642;51.364;6.788;2022-12-24T03:31:43;9.30;99.90
9215;DHT22;4642;51.364;6.788;2022-12-24T03:34:11;9.40;99.90
9215;DHT22;4642;51.364;6.788;2022-12-24T03:36:36;9.40;99.90
9215;DHT22;4642;51.364;6.788;2022-12-24T03:39:03;9.40;99.90
9215;DHT22;4642;51.364;6.788;2022-12-24T03:41:29;9.40;99.90
9215;DHT22;4642;51.364;6.788;2022-12-24T03:43:55;9.40;99.90
9215;DHT22;4642;51.364;6.788;2022-12-24T03:46:20;9.50;99.90
9215;DHT22;4642;51.364;6.788;2022-12-24T03:48:46;9.50;99.90
9215;DHT22;4642;51.364;6.788;2022-12-24T03:51:22;9.60;99.90
9215;DHT22;4642;51.364;6.788;2022-12-24T03:53:50;9.60;99.90
9215;DHT22;4642;51.364;6.788;2022-12-24T03:56:16;9.60;99.90
9215;DHT22;4642;51.364;6.788;2022-12-24T03:58:42;9.60;99.90
9215;DHT22;4642;51.364;6.788;2022-12-24T04:01:07;9.70;99.90
9215;DHT22;4642;51.364;6.788;2022-12-24T04:03:33;9.70;99.90
9215;DHT22;4642;51.364;6.788;2022-12-24T04:06:04;9.80;99.90
9215;DHT22;4642;51.364;6.788;2022-12-24T04:08:30;9.90;99.90
9215;DHT22;4642;51.364;6.788;2022-12-24T04:10:55;9.90;99.90
9215;DHT22;4642;51.364;6.788;2022-12-24T04:13:21;9.90;99.90
9215;DHT22;4642;51.364;6.788;2022-12-24T04:15:59;10.00;99.90
9215;DHT22;4642;51.364;6.788;2022-12-24T04:18:25;10.00;99.90
9215;DHT22;4642;51.364;6.788;2022-12-24T04:20:51;10.00;99.90
9215;DHT22;4642;51.364;6.788;2022-12-24T04:23:16;10.10;99.90
9215;DHT22;4642;51.364;6.788;2022-12-24T04:25:42;10.10;99.90
9215;DHT22;4642;51.364;6.788;2022-12-24T04:28:07;10.20;99.90
9215;DHT22;4642;51.364;6.788;2022-12-24T04:30:33;10.10;99.90
9215;DHT22;4642;51.364;6.788;2022-12-24T04:32:58;10.20;99.90
9215;DHT22;4642;51.364;6.788;2022-12-24T04:35:24;10.20;99.90
9215;DHT22;4642;51.364;6.788;2022-12-24T04:37:49;10.30;99.90
9215;DHT22;4642;51.364;6.788;2022-12-24T04:40:15;10.30;99.90
9215;DHT22;4642;51.364;6.788;2022-12-24T04:42:40;10.30;99.90
9215;DHT22;4642;51.364;6.788;2022-12-24T04:45:06;10.20;99.90
9215;DHT22;4642;51.364;6.788;2022-12-24T04:47:32;10.30;99.90
9215;DHT22;4642;51.364;6.788;2022-12-24T04:49:58;10.20;99.90
9215;DHT22;4642;51.364;6.788;2022-12-24T04:52:25;10.20;99.90
9215;DHT22;4642;51.364;6.788;2022-12-24T04:54:51;10.30;99.90
9215;DHT22;4642;51.364;6.788;2022-12-24T04:57:16;10.30;99.90
9215;DHT22;4642;51.364;6.788;2022-12-24T04:59:42;10.30;99.90
9215;DHT22;4642;51.364;6.788;2022-12-24T05:02:08;10.30;99.90
9215;DHT22;4642;51.364;6.788;2022-12-24T05:04:33;10.30;99.90
9215;DHT22;4642;51.364;6.788;2022-12-24T05:06:59;10.30;99.90
9215;DHT22;4642;51.364;6.788;2022-12-24T05:09:24;10.30;99.90
9215;DHT22;4642;51.364;6.788;2022-12-24T05:11:50;10.30;99.90
9215;DHT22;4642;51.364;6.788;2022-12-24T05:14:15;10.20;99.90
9215;DHT22;4642;51.364;6.788;2022-12-24T05:16:41;10.20;99.90
9215;DHT22;4642;51.364;6.788;2022-12-24T05:19:08;10.20;99.90
9215;DHT22;4642;51.364;6.788;2022-12-24T05:21:33;10.10;99.90
9215;DHT22;4642;51.364;6.788;2022-12-24T05:23:59;10.10;99.90
9215;DHT22;4642;51.364;6.788;2022-12-24T05:26:52;10.10;99.90
9215;DHT22;4642;51.364;6.788;2022-12-24T05:29:19;10.10;99.90
9215;DHT22;4642;51.364;6.788;2022-12-24T05:31:45;10.10;99.90
9215;DHT22;4642;51.364;6.788;2022-12-24T05:34:12;10.10;99.90
9215;DHT22;4642;51.364;6.788;2022-12-24T05:36:38;10.10;99.90
9215;DHT22;4642;51.364;6.788;2022-12-24T05:39:04;10.10;99.90
9215;DHT22;4642;51.364;6.788;2022-12-24T05:41:31;10.10;99.90
9215;DHT22;4642;51.364;6.788;2022-12-24T05:43:56;10.10;99.90
9215;DHT22;4642;51.364;6.788;2022-12-24T05:46:23;10.10;99.90
9215;DHT22;4642;51.364;6.788;2022-12-24T05:48:49;10.10;99.90
9215;DHT22;4642;51.364;6.788;2022-12-24T05:51:17;10.10;99.90
9215;DHT22;4642;51.364;6.788;2022-12-24T05:53:47;10.20;99.90
9215;DHT22;4642;51.364;6.788;2022-12-24T05:56:16;10.20;99.90
9215;DHT22;4642;51.364;6.788;2022-12-24T05:58:42;10.20;99.90
9215;DHT22;4642;51.364;6.788;2022-12-24T06:01:09;10.20;99.90
9215;DHT22;4642;51.364;6.788;2022-12-24T06:03:35;10.20;99.90
9215;DHT22;4642;51.364;6.788;2022-12-24T06:06:04;10.30;99.90
9215;DHT22;4642;51.364;6.788;2022-12-24T06:08:30;10.20;99.90
9215;DHT22;4642;51.364;6.788;2022-12-24T06:10:58;10.10;99.90
9215;DHT22;4642;51.364;6.788;2022-12-24T06:13:24;10.10;99.90
9215;DHT22;4642;51.364;6.788;2022-12-24T06:15:53;10.10;99.90
9215;DHT22;4642;51.364;6.788;2022-12-24T06:18:18;10.10;99.90
9215;DHT22;4642;51.364;6.788;2022-12-24T06:20:44;10.10;99.90
9215;DHT22;4642;51.364;6.788;2022-12-24T06:23:09;10.10;99.90
9215;DHT22;4642;51.364;6.788;2022-12-24T06:25:35;10.10;99.90
9215;DHT22;4642;51.364;6.788;2022-12-24T06:28:00;10.10;99.90
9215;DHT22;4642;51.364;6.788;2022-12-24T06:30:26;10.10;99.90
9215;DHT22;4642;51.364;6.788;2022-12-24T06:32:51;10.10;99.90
9215;DHT22;4642;51.364;6.788;2022-12-24T06:35:17;10.10;99.90
9215;DHT22;4642;51.364;6.788;2022-12-24T06:37:42;10.20;99.90
9215;DHT22;4642;51.364;6.788;2022-12-24T06:40:08;10.20;99.90
9215;DHT22;4642;51.364;6.788;2022-12-24T06:42:34;10.20;99.90
9215;DHT22;4642;51.364;6.788;2022-12-24T06:44:59;10.30;99.90
9215;DHT22;4642;51.364;6.788;2022-12-24T06:47:25;10.30;99.90
9215;DHT22;4642;51.364;6.788;2022-12-24T06:49:50;10.30;99.90
9215;DHT22;4642;51.364;6.788;2022-12-24T06:52:16;10.30;99.90
9215;DHT22;4642;51.364;6.788;2022-12-24T06:54:41;10.20;99.90
9215;DHT22;4642;51.364;6.788;2022-12-24T06:57:07;10.20;99.90
9215;DHT22;4642;51.364;6.788;2022-12-24T06:59:32;10.30;99.90
9215;DHT22;4642;51.364;6.788;2022-12-24T07:01:58;10.10;99.90
9215;DHT22;4642;51.364;6.788;2022-12-24T07:04:23;10.10;99.90
9215;DHT22;4642;51.364;6.788;2022-12-24T07:06:49;10.10;99.90
9215;DHT22;4642;51.364;6.788;2022-12-24T07:09:14;10.10;99.90
9215;DHT22;4642;51.364;6.788;2022-12-24T07:11:40;10.00;99.90
9215;DHT22;4642;51.364;6.788;2022-12-24T07:14:05;10.10;99.90
9215;DHT22;4642;51.364;6.788;2022-12-24T07:16:31;10.10;99.90
9215;DHT22;4642;51.364;6.788;2022-12-24T07:18:56;10.10;99.90
9215;DHT22;4642;51.364;6.788;2022-12-24T07:21:22;10.10;99.90
9215;DHT22;4642;51.364;6.788;2022-12-24T07:23:48;10.10;99.90
9215;DHT22;4642;51.364;6.788;2022-12-24T07:26:13;10.10;99.90
9215;DHT22;4642;51.364;6.788;2022-12-24T07:28:39;10.10;99.90
9215;DHT22;4642;51.364;6.788;2022-12-24T07:31:04;10.10;99.90
9215;DHT22;4642;51.364;6.788;2022-12-24T07:33:30;10.10;99.90
9215;DHT22;4642;51.364;6.788;2022-12-24T07:36:04;10.10;99.90
9215;DHT22;4642;51.364;6.788;2022-12-24T07:38:30;10.00;99.90
9215;DHT22;4642;51.364;6.788;2022-12-24T07:40:57;10.00;99.90
9215;DHT22;4642;51.364;6.788;2022-12-24T07:43:23;10.00;99.90
9215;DHT22;4642;51.364;6.788;2022-12-24T07:45:49;9.90;99.90
9215;DHT22;4642;51.364;6.788;2022-12-24T07:48:15;9.90;99.90
9215;DHT22;4642;51.364;6.788;2022-12-24T07:50:41;9.90;99.90
9215;DHT22;4642;51.364;6.788;2022-12-24T07:53:06;9.80;99.90
9215;DHT22;4642;51.364;6.788;2022-12-24T07:55:32;9.80;99.90
9215;DHT22;4642;51.364;6.788;2022-12-24T07:57:57;9.80;99.90
9215;DHT22;4642;51.364;6.788;2022-12-24T08:00:23;9.80;99.90
9215;DHT22;4642;51.364;6.788;2022-12-24T08:02:48;9.80;99.90
9215;DHT22;4642;51.364;6.788;2022-12-24T08:05:14;9.80;99.90
9215;DHT22;4642;51.364;6.788;2022-12-24T08:07:39;9.80;99.90
9215;DHT22;4642;51.364;6.788;2022-12-24T08:10:06;9.80;99.90
9215;DHT22;4642;51.364;6.788;2022-12-24T08:12:31;9.80;99.90
9215;DHT22;4642;51.364;6.788;2022-12-24T08:14:57;9.80;99.90
9215;DHT22;4642;51.364;6.788;2022-12-24T08:17:22;9.80;99.90
9215;DHT22;4642;51.364;6.788;2022-12-24T08:19:54;9.80;99.90
9215;DHT22;4642;51.364;6.788;2022-12-24T08:22:19;9.80;99.90
9215;DHT22;4642;51.364;6.788;2022-12-24T08:24:45;9.80;99.90
9215;DHT22;4642;51.364;6.788;2022-12-24T08:27:10;9.80;99.90
9215;DHT22;4642;51.364;6.788;2022-12-24T08:29:36;9.80;99.90
9215;DHT22;4642;51.364;6.788;2022-12-24T08:32:02;9.80;99.90
9215;DHT22;4642;51.364;6.788;2022-12-24T08:34:27;9.80;99.90
9215;DHT22;4642;51.364;6.788;2022-12-24T08:36:53;9.80;99.90
9215;DHT22;4642;51.364;6.788;2022-12-24T08:39:19;9.80;99.90
9215;DHT22;4642;51.364;6.788;2022-12-24T08:41:44;9.80;99.90
9215;DHT22;4642;51.364;6.788;2022-12-24T08:44:10;9.80;99.90
9215;DHT22;4642;51.364;6.788;2022-12-24T08:46:35;9.80;99.90
9215;DHT22;4642;51.364;6.788;2022-12-24T08:49:01;9.80;99.90
9215;DHT22;4642;51.364;6.788;2022-12-24T08:51:26;9.80;99.90
9215;DHT22;4642;51.364;6.788;2022-12-24T08:53:52;9.80;99.90
9215;DHT22;4642;51.364;6.788;2022-12-24T08:56:18;9.80;99.90
9215;DHT22;4642;51.364;6.788;2022-12-24T08:58:43;9.80;99.90
9215;DHT22;4642;51.364;6.788;2022-12-24T09:01:14;9.80;99.90
9215;DHT22;4642;51.364;6.788;2022-12-24T09:03:40;9.80;99.90
9215;DHT22;4642;51.364;6.788;2022-12-24T09:06:06;9.80;99.90
9215;DHT22;4642;51.364;6.788;2022-12-24T09:08:32;9.90;99.90
9215;DHT22;4642;51.364;6.788;2022-12-24T09:11:12;9.90;99.90
9215;DHT22;4642;51.364;6.788;2022-12-24T09:13:38;9.90;99.90
9215;DHT22;4642;51.364;6.788;2022-12-24T09:16:05;10.00;99.90
9215;DHT22;4642;51.364;6.788;2022-12-24T09:18:30;10.00;99.90
9215;DHT22;4642;51.364;6.788;2022-12-24T09:21:05;10.00;99.90
9215;DHT22;4642;51.364;6.788;2022-12-24T09:23:31;10.10;99.90
9215;DHT22;4642;51.364;6.788;2022-12-24T09:25:59;10.10;99.90
9215;DHT22;4642;51.364;6.788;2022-12-24T09:28:24;10.10;99.90
9215;DHT22;4642;51.364;6.788;2022-12-24T09:30:58;10.10;99.90
9215;DHT22;4642;51.364;6.788;2022-12-24T09:33:24;10.20;99.90
9215;DHT22;4642;51.364;6.788;2022-12-24T09:35:51;10.20;99.90
9215;DHT22;4642;51.364;6.788;2022-12-24T09:38:18;10.20;99.90
9215;DHT22;4642;51.364;6.788;2022-12-24T09:40:43;10.30;99.90
9215;DHT22;4642;51.364;6.788;2022-12-24T09:43:18;10.30;99.90
9215;DHT22;4642;51.364;6.788;2022-12-24T09:48:31;10.40;99.90
9215;DHT22;4642;51.364;6.788;2022-12-24T09:51:07;10.40;99.90
9215;DHT22;4642;51.364;6.788;2022-12-24T09:53:46;10.40;99.90
9215;DHT22;4642;51.364;6.788;2022-12-24T09:56:46;10.40;99.90
9215;DHT22;4642;51.364;6.788;2022-12-24T09:59:23;10.50;99.90
9215;DHT22;4642;51.364;6.788;2022-12-24T10:01:52;10.50;99.90
9215;DHT22;4642;51.364;6.788;2022-12-24T10:04:21;10.60;99.90
9215;DHT22;4642;51.364;6.788;2022-12-24T10:07:05;10.60;99.90
9215;DHT22;4642;51.364;6.788;2022-12-24T10:15:45;10.50;99.90
9215;DHT22;4642;51.364;6.788;2022-12-24T10:28:46;10.60;99.90
9215;DHT22;4642;51.364;6.788;2022-12-24T10:31:14;10.60;99.90
9215;DHT22;4642;51.364;6.788;2022-12-24T10:33:43;10.70;99.90
9215;DHT22;4642;51.364;6.788;2022-12-24T10:36:15;10.70;99.90
9215;DHT22;4642;51.364;6.788;2022-12-24T10:38:43;10.70;99.90
9215;DHT22;4642;51.364;6.788;2022-12-24T10:44:32;10.70;99.90
9215;DHT22;4642;51.364;6.788;2022-12-24T10:46:58;10.80;99.90
9215;DHT22;4642;51.364;6.788;2022-12-24T10:51:59;10.90;99.90
9215;DHT22;4642;51.364;6.788;2022-12-24T10:54:27;10.90;99.90
9215;DHT22;4642;51.364;6.788;2022-12-24T10:57:01;11.00;99.90
9215;DHT22;4642;51.364;6.788;2022-12-24T10:59:41;11.00;99.90
9215;DHT22;4642;51.364;6.788;2022-12-24T11:04:54;11.10;99.90
9215;DHT22;4642;51.364;6.788;2022-12-24T11:07:22;11.10;99.90
9215;DHT22;4642;51.364;6.788;2022-12-24T11:09:59;11.20;99.90
9215;DHT22;4642;51.364;6.788;2022-12-24T11:12:39;11.20;99.90
9215;DHT22;4642;51.364;6.788;2022-12-24T11:15:19;11.20;99.90
9215;DHT22;4642;51.364;6.788;2022-12-24T11:20:24;11.20;99.90
9215;DHT22;4642;51.364;6.788;2022-12-24T11:22:50;11.20;99.90
9215;DHT22;4642;51.364;6.788;2022-12-24T11:25:21;11.20;99.90
9215;DHT22;4642;51.364;6.788;2022-12-24T11:27:49;11.30;99.90
9215;DHT22;4642;51.364;6.788;2022-12-24T11:33:13;11.30;99.90
9215;DHT22;4642;51.364;6.788;2022-12-24T11:35:32;11.30;99.90
9215;DHT22;4642;51.364;6.788;2022-12-24T11:40:43;11.30;99.90
9215;DHT22;4642;51.364;6.788;2022-12-24T11:43:20;11.20;99.90
9215;DHT22;4642;51.364;6.788;2022-12-24T11:45:54;11.30;99.90
9215;DHT22;4642;51.364;6.788;2022-12-24T11:50:56;11.40;99.90
9215;DHT22;4642;51.364;6.788;2022-12-24T11:53:27;11.40;99.90
9215;DHT22;4642;51.364;6.788;2022-12-24T11:55:58;11.50;99.90
9215;DHT22;4642;51.364;6.788;2022-12-24T11:58:34;11.50;99.90
9215;DHT22;4642;51.364;6.788;2022-12-24T12:03:49;11.40;99.90
9215;DHT22;4642;51.364;6.788;2022-12-24T12:09:09;11.50;99.90
9215;DHT22;4642;51.364;6.788;2022-12-24T12:11:38;11.60;99.90
9215;DHT22;4642;51.364;6.788;2022-12-24T12:14:05;11.60;99.90
9215;DHT22;4642;51.364;6.788;2022-12-24T12:17:00;11.60;99.90
9215;DHT22;4642;51.364;6.788;2022-12-24T12:19:44;11.70;99.90
9215;DHT22;4642;51.364;6.788;2022-12-24T12:22:27;11.70;99.90
9215;DHT22;4642;51.364;6.788;2022-12-24T12:24:54;11.80;99.90
9215;DHT22;4642;51.364;6.788;2022-12-24T12:27:37;11.80;99.90
9215;DHT22;4642;51.364;6.788;2022-12-24T12:30:15;12.00;99.90
9215;DHT22;4642;51.364;6.788;2022-12-24T12:38:11;12.20;99.90
9215;DHT22;4642;51.364;6.788;2022-12-24T12:46:33;12.10;99.90
9215;DHT22;4642;51.364;6.788;2022-12-24T12:51:43;12.20;99.90
9215;DHT22;4642;51.364;6.788;2022-12-24T12:56:55;12.30;99.90
9215;DHT22;4642;51.364;6.788;2022-12-24T13:02:12;12.30;99.90
9215;DHT22;4642;51.364;6.788;2022-12-24T13:20:32;12.40;99.90
9215;DHT22;4642;51.364;6.788;2022-12-24T13:23:10;12.40;99.90
9215;DHT22;4642;51.364;6.788;2022-12-24T13:25:39;12.30;99.90
9215;DHT22;4642;51.364;6.788;2022-12-24T13:36:05;12.20;99.90
9215;DHT22;4642;51.364;6.788;2022-12-24T13:47:15;12.00;99.90
9215;DHT22;4642;51.364;6.788;2022-12-24T13:49:45;11.90;99.90
9215;DHT22;4642;51.364;6.788;2022-12-24T13:54:45;11.90;99.90
9215;DHT22;4642;51.364;6.788;2022-12-24T14:02:57;11.80;99.90
9215;DHT22;4642;51.364;6.788;2022-12-24T14:05:37;11.70;99.90
9215;DHT22;4642;51.364;6.788;2022-12-24T14:11:03;11.70;99.90
9215;DHT22;4642;51.364;6.788;2022-12-24T14:16:27;11.60;99.90
9215;DHT22;4642;51.364;6.788;2022-12-24T14:21:56;11.50;99.90
9215;DHT22;4642;51.364;6.788;2022-12-24T14:24:32;11.50;99.90
9215;DHT22;4642;51.364;6.788;2022-12-24T14:27:07;11.40;99.90
9215;DHT22;4642;51.364;6.788;2022-12-24T14:29:45;11.40;99.90
9215;DHT22;4642;51.364;6.788;2022-12-24T14:32:14;11.30;99.90
9215;DHT22;4642;51.364;6.788;2022-12-24T14:34:41;11.30;99.90
9215;DHT22;4642;51.364;6.788;2022-12-24T14:37:10;11.30;99.90
9215;DHT22;4642;51.364;6.788;2022-12-24T14:39:41;11.20;99.90
9215;DHT22;4642;51.364;6.788;2022-12-24T14:45:33;11.10;99.90
9215;DHT22;4642;51.364;6.788;2022-12-24T14:48:22;11.10;99.90
9215;DHT22;4642;51.364;6.788;2022-12-24T14:51:05;11.10;99.90
9215;DHT22;4642;51.364;6.788;2022-12-24T14:56:23;11.00;99.90
9215;DHT22;4642;51.364;6.788;2022-12-24T14:58:49;10.90;99.90
9215;DHT22;4642;51.364;6.788;2022-12-24T15:01:26;10.80;99.90
9215;DHT22;4642;51.364;6.788;2022-12-24T15:06:25;10.70;99.90
9215;DHT22;4642;51.364;6.788;2022-12-24T15:08:51;10.60;99.90
9215;DHT22;4642;51.364;6.788;2022-12-24T15:11:20;10.60;99.90
9215;DHT22;4642;51.364;6.788;2022-12-24T15:13:49;10.60;99.90
9215;DHT22;4642;51.364;6.788;2022-12-24T15:16:30;10.50;99.90
9215;DHT22;4642;51.364;6.788;2022-12-24T15:19:00;10.40;99.90
9215;DHT22;4642;51.364;6.788;2022-12-24T15:21:33;10.40;99.90
9215;DHT22;4642;51.364;6.788;2022-12-24T15:24:02;10.30;99.90
9215;DHT22;4642;51.364;6.788;2022-12-24T15:26:32;10.30;99.90
9215;DHT22;4642;51.364;6.788;2022-12-24T15:29:01;10.20;99.90
9215;DHT22;4642;51.364;6.788;2022-12-24T15:31:37;10.20;99.90
9215;DHT22;4642;51.364;6.788;2022-12-24T15:34:03;10.10;99.90
9215;DHT22;4642;51.364;6.788;2022-12-24T15:36:34;10.10;99.90
9215;DHT22;4642;51.364;6.788;2022-12-24T15:39:06;10.00;99.90
9215;DHT22;4642;51.364;6.788;2022-12-24T15:41:50;10.00;99.90
9215;DHT22;4642;51.364;6.788;2022-12-24T15:44:36;9.80;99.90
9215;DHT22;4642;51.364;6.788;2022-12-24T15:47:05;9.80;99.90
9215;DHT22;4642;51.364;6.788;2022-12-24T15:49:32;9.70;99.90
9215;DHT22;4642;51.364;6.788;2022-12-24T15:52:07;9.60;99.90
9215;DHT22;4642;51.364;6.788;2022-12-24T15:54:34;9.40;99.90
9215;DHT22;4642;51.364;6.788;2022-12-24T15:57:12;9.30;99.90
9215;DHT22;4642;51.364;6.788;2022-12-24T15:59:37;9.20;99.90
9215;DHT22;4642;51.364;6.788;2022-12-24T16:02:39;9.00;99.90
9215;DHT22;4642;51.364;6.788;2022-12-24T16:05:31;8.90;99.90
9215;DHT22;4642;51.364;6.788;2022-12-24T16:10:41;8.70;99.90
9215;DHT22;4642;51.364;6.788;2022-12-24T16:13:28;8.70;99.90
9215;DHT22;4642;51.364;6.788;2022-12-24T16:16:03;8.60;99.90
9215;DHT22;4642;51.364;6.788;2022-12-24T16:18:35;8.60;99.90
9215;DHT22;4642;51.364;6.788;2022-12-24T16:21:03;8.40;99.90
9215;DHT22;4642;51.364;6.788;2022-12-24T16:25:59;8.30;99.90
9215;DHT22;4642;51.364;6.788;2022-12-24T16:28:25;8.20;99.90
9215;DHT22;4642;51.364;6.788;2022-12-24T16:30:51;8.10;99.90
9215;DHT22;4642;51.364;6.788;2022-12-24T16:33:20;8.00;99.90
9215;DHT22;4642;51.364;6.788;2022-12-24T16:35:46;8.00;99.90
9215;DHT22;4642;51.364;6.788;2022-12-24T16:38:12;7.90;99.90
9215;DHT22;4642;51.364;6.788;2022-12-24T16:40:39;7.90;99.90
9215;DHT22;4642;51.364;6.788;2022-12-24T16:43:04;7.90;99.90
9215;DHT22;4642;51.364;6.788;2022-12-24T16:45:49;7.80;99.90
9215;DHT22;4642;51.364;6.788;2022-12-24T16:48:22;7.70;99.90
9215;DHT22;4642;51.364;6.788;2022-12-24T16:50:50;7.70;99.90
9215;DHT22;4642;51.364;6.788;2022-12-24T16:53:17;7.60;99.90
9215;DHT22;4642;51.364;6.788;2022-12-24T16:55:43;7.50;99.90
9215;DHT22;4642;51.364;6.788;2022-12-24T16:58:11;7.50;99.90
9215;DHT22;4642;51.364;6.788;2022-12-24T17:00:37;7.50;99.90
9215;DHT22;4642;51.364;6.788;2022-12-24T17:03:03;7.40;99.90
9215;DHT22;4642;51.364;6.788;2022-12-24T17:05:29;7.30;99.90
9215;DHT22;4642;51.364;6.788;2022-12-24T17:07:54;7.30;99.90
9215;DHT22;4642;51.364;6.788;2022-12-24T17:10:20;7.20;99.90
9215;DHT22;4642;51.364;6.788;2022-12-24T17:12:45;7.20;99.90
9215;DHT22;4642;51.364;6.788;2022-12-24T17:15:11;7.10;99.90
9215;DHT22;4642;51.364;6.788;2022-12-24T17:17:37;7.10;99.90
9215;DHT22;4642;51.364;6.788;2022-12-24T17:20:03;7.10;99.90
9215;DHT22;4642;51.364;6.788;2022-12-24T17:22:29;7.00;99.90
9215;DHT22;4642;51.364;6.788;2022-12-24T17:24:55;6.90;99.90
9215;DHT22;4642;51.364;6.788;2022-12-24T17:27:21;6.90;99.90
9215;DHT22;4642;51.364;6.788;2022-12-24T17:29:47;6.90;99.90
9215;DHT22;4642;51.364;6.788;2022-12-24T17:32:13;6.90;99.90
9215;DHT22;4642;51.364;6.788;2022-12-24T17:34:38;6.80;99.90
9215;DHT22;4642;51.364;6.788;2022-12-24T17:37:04;6.80;99.90
9215;DHT22;4642;51.364;6.788;2022-12-24T17:39:30;6.80;99.90
9215;DHT22;4642;51.364;6.788;2022-12-24T17:41:56;6.70;99.90
9215;DHT22;4642;51.364;6.788;2022-12-24T17:44:22;6.70;99.90
9215;DHT22;4642;51.364;6.788;2022-12-24T17:46:48;6.70;99.90
9215;DHT22;4642;51.364;6.788;2022-12-24T17:49:13;6.60;99.90
9215;DHT22;4642;51.364;6.788;2022-12-24T17:51:39;6.60;99.90
9215;DHT22;4642;51.364;6.788;2022-12-24T17:54:05;6.60;99.90
9215;DHT22;4642;51.364;6.788;2022-12-24T17:56:30;6.50;99.90
9215;DHT22;4642;51.364;6.788;2022-12-24T17:58:56;6.50;99.90
9215;DHT22;4642;51.364;6.788;2022-12-24T18:01:24;6.40;99.90
9215;DHT22;4642;51.364;6.788;2022-12-24T18:03:51;6.40;99.90
9215;DHT22;4642;51.364;6.788;2022-12-24T18:06:18;6.40;99.90
9215;DHT22;4642;51.364;6.788;2022-12-24T18:08:45;6.40;99.90
9215;DHT22;4642;51.364;6.788;2022-12-24T18:11:24;6.40;99.90
9215;DHT22;4642;51.364;6.788;2022-12-24T18:13:51;6.40;99.90
9215;DHT22;4642;51.364;6.788;2022-12-24T18:16:23;6.30;99.90
9215;DHT22;4642;51.364;6.788;2022-12-24T18:18:49;6.20;99.90
9215;DHT22;4642;51.364;6.788;2022-12-24T18:21:16;6.20;99.90
9215;DHT22;4642;51.364;6.788;2022-12-24T18:23:43;6.20;99.90
9215;DHT22;4642;51.364;6.788;2022-12-24T18:26:10;6.10;99.90
9215;DHT22;4642;51.364;6.788;2022-12-24T18:28:36;6.10;99.90
9215;DHT22;4642;51.364;6.788;2022-12-24T18:31:05;6.10;99.90
9215;DHT22;4642;51.364;6.788;2022-12-24T18:33:33;6.00;99.90
9215;DHT22;4642;51.364;6.788;2022-12-24T18:35:58;6.00;99.90
9215;DHT22;4642;51.364;6.788;2022-12-24T18:38:24;6.00;99.90
9215;DHT22;4642;51.364;6.788;2022-12-24T18:40:50;5.90;99.90
9215;DHT22;4642;51.364;6.788;2022-12-24T18:43:16;5.90;99.90
9215;DHT22;4642;51.364;6.788;2022-12-24T18:45:42;5.90;99.90
9215;DHT22;4642;51.364;6.788;2022-12-24T18:48:08;5.90;99.90
9215;DHT22;4642;51.364;6.788;2022-12-24T18:50:36;5.80;99.90